sensor_id;sensor_type;location;lat;lon;timestamp;P1;durP1;ratioP1;P2;durP2;ratioP2
72427;SDS011;60419;48.880;18.036;2023-07-13T00:01:57;7.53;;;3.13;;
72427;SDS011;60419;48.880;18.036;2023-07-13T00:04:43;3.95;;;2.67;;
72427;SDS011;60419;48.880;18.036;2023-07-13T00:07:28;8.43;;;3.00;;
72427;SDS011;60419;48.880;18.036;2023-07-13T00:10:14;5.45;;;3.10;;
72427;SDS011;60419;48.880;18.036;2023-07-13T00:12:59;5.93;;;3.35;;
72427;SDS011;60419;48.880;18.036;2023-07-13T00:15:46;6.15;;;3.20;;
72427;SDS011;60419;48.880;18.036;2023-07-13T00:18:31;5.68;;;3.13;;
72427;SDS011;60419;48.880;18.036;2023-07-13T00:21:17;7.38;;;3.53;;
72427;SDS011;60419;48.880;18.036;2023-07-13T00:24:02;10.32;;;4.57;;
72427;SDS011;60419;48.880;18.036;2023-07-13T00:26:48;10.13;;;5.13;;
72427;SDS011;60419;48.880;18.036;2023-07-13T00:29:33;11.38;;;5.85;;
72427;SDS011;60419;48.880;18.036;2023-07-13T00:32:19;11.80;;;5.43;;
72427;SDS011;60419;48.880;18.036;2023-07-13T00:35:04;12.45;;;4.88;;
72427;SDS011;60419;48.880;18.036;2023-07-13T00:37:50;11.70;;;5.68;;
72427;SDS011;60419;48.880;18.036;2023-07-13T00:40:35;12.65;;;6.63;;
72427;SDS011;60419;48.880;18.036;2023-07-13T00:43:22;11.15;;;6.18;;
72427;SDS011;60419;48.880;18.036;2023-07-13T00:46:11;9.98;;;5.45;;
72427;SDS011;60419;48.880;18.036;2023-07-13T00:48:58;10.88;;;5.28;;
72427;SDS011;60419;48.880;18.036;2023-07-13T00:51:49;11.07;;;6.03;;
72427;SDS011;60419;48.880;18.036;2023-07-13T00:54:39;12.85;;;5.72;;
72427;SDS011;60419;48.880;18.036;2023-07-13T00:57:28;11.95;;;5.55;;
72427;SDS011;60419;48.880;18.036;2023-07-13T01:00:14;11.57;;;5.40;;
72427;SDS011;60419;48.880;18.036;2023-07-13T01:02:59;10.25;;;6.50;;
72427;SDS011;60419;48.880;18.036;2023-07-13T01:05:49;14.60;;;6.55;;
72427;SDS011;60419;48.880;18.036;2023-07-13T01:08:35;9.35;;;5.28;;
72427;SDS011;60419;48.880;18.036;2023-07-13T01:11:21;9.98;;;5.45;;
72427;SDS011;60419;48.880;18.036;2023-07-13T01:14:07;10.27;;;5.25;;
72427;SDS011;60419;48.880;18.036;2023-07-13T01:16:53;9.93;;;5.25;;
72427;SDS011;60419;48.880;18.036;2023-07-13T01:19:40;11.18;;;5.68;;
72427;SDS011;60419;48.880;18.036;2023-07-13T01:22:28;9.85;;;5.78;;
72427;SDS011;60419;48.880;18.036;2023-07-13T01:25:13;8.68;;;5.47;;
72427;SDS011;60419;48.880;18.036;2023-07-13T01:27:59;9.00;;;5.38;;
72427;SDS011;60419;48.880;18.036;2023-07-13T01:30:45;8.23;;;5.07;;
72427;SDS011;60419;48.880;18.036;2023-07-13T01:33:31;8.88;;;5.07;;
72427;SDS011;60419;48.880;18.036;2023-07-13T01:36:17;9.63;;;6.25;;
72427;SDS011;60419;48.880;18.036;2023-07-13T01:39:02;9.55;;;6.20;;
72427;SDS011;60419;48.880;18.036;2023-07-13T01:41:48;10.98;;;6.40;;
72427;SDS011;60419;48.880;18.036;2023-07-13T01:44:33;8.27;;;5.22;;
72427;SDS011;60419;48.880;18.036;2023-07-13T01:47:19;11.88;;;6.03;;
72427;SDS011;60419;48.880;18.036;2023-07-13T01:50:04;10.48;;;5.78;;
72427;SDS011;60419;48.880;18.036;2023-07-13T01:52:50;8.55;;;5.50;;
72427;SDS011;60419;48.880;18.036;2023-07-13T01:55:35;8.50;;;5.75;;
72427;SDS011;60419;48.880;18.036;2023-07-13T01:58:22;8.70;;;5.78;;
72427;SDS011;60419;48.880;18.036;2023-07-13T02:01:07;8.48;;;5.13;;
72427;SDS011;60419;48.880;18.036;2023-07-13T02:03:53;9.75;;;4.82;;
72427;SDS011;60419;48.880;18.036;2023-07-13T02:06:38;8.82;;;5.30;;
72427;SDS011;60419;48.880;18.036;2023-07-13T02:09:23;11.00;;;6.13;;
72427;SDS011;60419;48.880;18.036;2023-07-13T02:12:09;9.25;;;6.32;;
72427;SDS011;60419;48.880;18.036;2023-07-13T02:14:54;9.10;;;6.07;;
72427;SDS011;60419;48.880;18.036;2023-07-13T02:17:40;11.60;;;6.70;;
72427;SDS011;60419;48.880;18.036;2023-07-13T02:20:25;9.82;;;5.78;;
72427;SDS011;60419;48.880;18.036;2023-07-13T02:23:11;8.90;;;6.80;;
72427;SDS011;60419;48.880;18.036;2023-07-13T02:25:57;10.07;;;6.00;;
72427;SDS011;60419;48.880;18.036;2023-07-13T02:28:44;9.43;;;6.47;;
72427;SDS011;60419;48.880;18.036;2023-07-13T02:31:29;8.40;;;6.32;;
72427;SDS011;60419;48.880;18.036;2023-07-13T02:34:15;9.57;;;6.47;;
72427;SDS011;60419;48.880;18.036;2023-07-13T02:37:00;10.82;;;7.22;;
72427;SDS011;60419;48.880;18.036;2023-07-13T02:39:45;8.38;;;6.30;;
72427;SDS011;60419;48.880;18.036;2023-07-13T02:42:31;10.00;;;5.95;;
72427;SDS011;60419;48.880;18.036;2023-07-13T02:45:16;10.00;;;5.30;;
72427;SDS011;60419;48.880;18.036;2023-07-13T02:48:02;11.02;;;5.22;;
72427;SDS011;60419;48.880;18.036;2023-07-13T02:50:47;7.75;;;4.68;;
72427;SDS011;60419;48.880;18.036;2023-07-13T02:53:32;8.45;;;4.90;;
72427;SDS011;60419;48.880;18.036;2023-07-13T02:56:25;8.13;;;4.85;;
72427;SDS011;60419;48.880;18.036;2023-07-13T02:59:11;7.18;;;5.18;;
72427;SDS011;60419;48.880;18.036;2023-07-13T03:01:57;8.82;;;5.32;;
72427;SDS011;60419;48.880;18.036;2023-07-13T03:04:42;7.00;;;5.28;;
72427;SDS011;60419;48.880;18.036;2023-07-13T03:07:28;7.18;;;5.10;;
72427;SDS011;60419;48.880;18.036;2023-07-13T03:10:16;7.95;;;4.90;;
72427;SDS011;60419;48.880;18.036;2023-07-13T03:13:01;8.75;;;5.50;;
72427;SDS011;60419;48.880;18.036;2023-07-13T03:15:48;7.30;;;4.97;;
72427;SDS011;60419;48.880;18.036;2023-07-13T03:18:34;9.32;;;4.72;;
72427;SDS011;60419;48.880;18.036;2023-07-13T03:21:20;11.50;;;6.35;;
72427;SDS011;60419;48.880;18.036;2023-07-13T03:24:06;9.57;;;6.18;;
72427;SDS011;60419;48.880;18.036;2023-07-13T03:26:51;9.13;;;5.93;;
72427;SDS011;60419;48.880;18.036;2023-07-13T03:29:37;11.43;;;6.32;;
72427;SDS011;60419;48.880;18.036;2023-07-13T03:32:23;12.65;;;6.95;;
72427;SDS011;60419;48.880;18.036;2023-07-13T03:35:08;12.10;;;6.75;;
72427;SDS011;60419;48.880;18.036;2023-07-13T03:37:55;11.25;;;6.82;;
72427;SDS011;60419;48.880;18.036;2023-07-13T03:40:40;11.05;;;6.70;;
72427;SDS011;60419;48.880;18.036;2023-07-13T03:43:26;8.27;;;5.43;;
72427;SDS011;60419;48.880;18.036;2023-07-13T03:46:13;6.95;;;4.88;;
72427;SDS011;60419;48.880;18.036;2023-07-13T03:48:58;6.43;;;4.00;;
72427;SDS011;60419;48.880;18.036;2023-07-13T03:51:44;10.18;;;5.28;;
72427;SDS011;60419;48.880;18.036;2023-07-13T03:54:29;8.05;;;5.03;;
72427;SDS011;60419;48.880;18.036;2023-07-13T03:57:15;10.07;;;5.90;;
72427;SDS011;60419;48.880;18.036;2023-07-13T04:00:00;8.38;;;5.60;;
72427;SDS011;60419;48.880;18.036;2023-07-13T04:02:45;9.45;;;6.07;;
72427;SDS011;60419;48.880;18.036;2023-07-13T04:05:33;9.65;;;6.20;;
72427;SDS011;60419;48.880;18.036;2023-07-13T04:08:18;8.32;;;5.97;;
72427;SDS011;60419;48.880;18.036;2023-07-13T04:11:04;7.43;;;5.93;;
72427;SDS011;60419;48.880;18.036;2023-07-13T04:13:49;10.15;;;5.82;;
72427;SDS011;60419;48.880;18.036;2023-07-13T04:16:35;10.23;;;6.05;;
72427;SDS011;60419;48.880;18.036;2023-07-13T04:19:21;9.70;;;6.80;;
72427;SDS011;60419;48.880;18.036;2023-07-13T04:22:06;8.00;;;5.90;;
72427;SDS011;60419;48.880;18.036;2023-07-13T04:24:52;11.02;;;6.40;;
72427;SDS011;60419;48.880;18.036;2023-07-13T04:27:37;8.93;;;6.03;;
72427;SDS011;60419;48.880;18.036;2023-07-13T04:30:24;12.50;;;5.85;;
72427;SDS011;60419;48.880;18.036;2023-07-13T04:33:10;8.52;;;5.47;;
72427;SDS011;60419;48.880;18.036;2023-07-13T04:35:55;11.23;;;6.43;;
72427;SDS011;60419;48.880;18.036;2023-07-13T04:38:41;7.93;;;5.50;;
72427;SDS011;60419;48.880;18.036;2023-07-13T04:41:26;10.43;;;6.43;;
72427;SDS011;60419;48.880;18.036;2023-07-13T04:44:13;8.82;;;6.22;;
72427;SDS011;60419;48.880;18.036;2023-07-13T04:46:58;11.25;;;6.18;;
72427;SDS011;60419;48.880;18.036;2023-07-13T04:49:44;9.27;;;6.68;;
72427;SDS011;60419;48.880;18.036;2023-07-13T04:52:30;9.13;;;6.13;;
72427;SDS011;60419;48.880;18.036;2023-07-13T04:55:15;9.30;;;5.90;;
72427;SDS011;60419;48.880;18.036;2023-07-13T04:58:01;7.95;;;5.63;;
72427;SDS011;60419;48.880;18.036;2023-07-13T05:00:47;7.13;;;4.07;;
72427;SDS011;60419;48.880;18.036;2023-07-13T05:03:33;10.52;;;4.78;;
72427;SDS011;60419;48.880;18.036;2023-07-13T05:06:20;8.45;;;5.10;;
72427;SDS011;60419;48.880;18.036;2023-07-13T05:09:06;8.73;;;4.32;;
72427;SDS011;60419;48.880;18.036;2023-07-13T05:11:52;8.05;;;4.47;;
72427;SDS011;60419;48.880;18.036;2023-07-13T05:14:37;13.20;;;4.15;;
72427;SDS011;60419;48.880;18.036;2023-07-13T05:17:23;10.52;;;5.07;;
72427;SDS011;60419;48.880;18.036;2023-07-13T05:20:08;7.28;;;4.10;;
72427;SDS011;60419;48.880;18.036;2023-07-13T05:22:55;11.27;;;4.88;;
72427;SDS011;60419;48.880;18.036;2023-07-13T05:25:40;8.48;;;3.58;;
72427;SDS011;60419;48.880;18.036;2023-07-13T05:28:26;11.23;;;3.97;;
72427;SDS011;60419;48.880;18.036;2023-07-13T05:31:12;7.05;;;3.65;;
72427;SDS011;60419;48.880;18.036;2023-07-13T05:33:58;8.02;;;3.50;;
72427;SDS011;60419;48.880;18.036;2023-07-13T05:36:43;6.53;;;3.03;;
72427;SDS011;60419;48.880;18.036;2023-07-13T05:39:28;7.85;;;2.88;;
72427;SDS011;60419;48.880;18.036;2023-07-13T05:42:14;5.22;;;2.65;;
72427;SDS011;60419;48.880;18.036;2023-07-13T05:44:59;4.68;;;2.47;;
72427;SDS011;60419;48.880;18.036;2023-07-13T05:47:45;4.57;;;2.55;;
72427;SDS011;60419;48.880;18.036;2023-07-13T05:50:30;4.55;;;2.50;;
72427;SDS011;60419;48.880;18.036;2023-07-13T05:53:16;6.20;;;2.95;;
72427;SDS011;60419;48.880;18.036;2023-07-13T05:56:02;4.90;;;2.40;;
72427;SDS011;60419;48.880;18.036;2023-07-13T05:58:48;4.30;;;2.17;;
72427;SDS011;60419;48.880;18.036;2023-07-13T06:01:34;4.25;;;2.10;;
72427;SDS011;60419;48.880;18.036;2023-07-13T06:04:19;9.68;;;2.30;;
72427;SDS011;60419;48.880;18.036;2023-07-13T06:07:05;4.68;;;2.28;;
72427;SDS011;60419;48.880;18.036;2023-07-13T06:09:50;3.60;;;2.20;;
72427;SDS011;60419;48.880;18.036;2023-07-13T06:12:36;3.80;;;1.80;;
72427;SDS011;60419;48.880;18.036;2023-07-13T06:15:21;4.72;;;2.17;;
72427;SDS011;60419;48.880;18.036;2023-07-13T06:18:07;4.43;;;2.00;;
72427;SDS011;60419;48.880;18.036;2023-07-13T06:20:52;4.22;;;2.33;;
72427;SDS011;60419;48.880;18.036;2023-07-13T06:23:37;6.07;;;2.25;;
72427;SDS011;60419;48.880;18.036;2023-07-13T06:26:23;4.75;;;2.30;;
72427;SDS011;60419;48.880;18.036;2023-07-13T06:29:09;16.45;;;5.32;;
72427;SDS011;60419;48.880;18.036;2023-07-13T06:31:54;31.83;;;9.13;;
72427;SDS011;60419;48.880;18.036;2023-07-13T06:34:39;41.78;;;12.57;;
72427;SDS011;60419;48.880;18.036;2023-07-13T06:37:25;13.27;;;5.03;;
72427;SDS011;60419;48.880;18.036;2023-07-13T06:40:10;8.32;;;2.90;;
72427;SDS011;60419;48.880;18.036;2023-07-13T06:42:56;4.65;;;2.50;;
72427;SDS011;60419;48.880;18.036;2023-07-13T06:45:43;6.03;;;2.83;;
72427;SDS011;60419;48.880;18.036;2023-07-13T06:48:34;4.78;;;2.58;;
72427;SDS011;60419;48.880;18.036;2023-07-13T06:51:20;4.80;;;2.33;;
72427;SDS011;60419;48.880;18.036;2023-07-13T06:54:06;5.25;;;2.47;;
72427;SDS011;60419;48.880;18.036;2023-07-13T06:56:51;6.43;;;3.00;;
72427;SDS011;60419;48.880;18.036;2023-07-13T06:59:37;4.40;;;2.63;;
72427;SDS011;60419;48.880;18.036;2023-07-13T07:02:22;5.93;;;3.00;;
72427;SDS011;60419;48.880;18.036;2023-07-13T07:05:07;4.15;;;2.65;;
72427;SDS011;60419;48.880;18.036;2023-07-13T07:07:54;9.48;;;2.83;;
72427;SDS011;60419;48.880;18.036;2023-07-13T07:10:40;6.00;;;2.50;;
72427;SDS011;60419;48.880;18.036;2023-07-13T07:13:25;6.72;;;2.97;;
72427;SDS011;60419;48.880;18.036;2023-07-13T07:16:13;4.53;;;2.75;;
72427;SDS011;60419;48.880;18.036;2023-07-13T07:18:59;5.28;;;2.70;;
72427;SDS011;60419;48.880;18.036;2023-07-13T07:21:44;7.50;;;3.30;;
72427;SDS011;60419;48.880;18.036;2023-07-13T07:24:29;4.65;;;2.92;;
72427;SDS011;60419;48.880;18.036;2023-07-13T07:27:15;5.28;;;2.90;;
72427;SDS011;60419;48.880;18.036;2023-07-13T07:30:00;6.38;;;2.95;;
72427;SDS011;60419;48.880;18.036;2023-07-13T07:32:46;7.72;;;3.20;;
72427;SDS011;60419;48.880;18.036;2023-07-13T07:35:31;5.45;;;3.17;;
72427;SDS011;60419;48.880;18.036;2023-07-13T07:38:16;6.57;;;3.65;;
72427;SDS011;60419;48.880;18.036;2023-07-13T07:41:03;7.63;;;3.33;;
72427;SDS011;60419;48.880;18.036;2023-07-13T07:43:49;10.00;;;3.30;;
72427;SDS011;60419;48.880;18.036;2023-07-13T07:46:35;4.50;;;2.83;;
72427;SDS011;60419;48.880;18.036;2023-07-13T07:49:20;4.22;;;2.80;;
72427;SDS011;60419;48.880;18.036;2023-07-13T07:52:06;4.50;;;3.22;;
72427;SDS011;60419;48.880;18.036;2023-07-13T07:54:52;4.85;;;3.30;;
72427;SDS011;60419;48.880;18.036;2023-07-13T07:57:37;4.63;;;2.75;;
72427;SDS011;60419;48.880;18.036;2023-07-13T08:00:22;5.78;;;2.95;;
72427;SDS011;60419;48.880;18.036;2023-07-13T08:03:08;4.93;;;3.35;;
72427;SDS011;60419;48.880;18.036;2023-07-13T08:05:53;10.98;;;3.42;;
72427;SDS011;60419;48.880;18.036;2023-07-13T08:08:39;6.13;;;3.30;;
72427;SDS011;60419;48.880;18.036;2023-07-13T08:11:24;5.93;;;3.38;;
72427;SDS011;60419;48.880;18.036;2023-07-13T08:14:10;7.90;;;3.88;;
72427;SDS011;60419;48.880;18.036;2023-07-13T08:16:55;5.63;;;3.55;;
72427;SDS011;60419;48.880;18.036;2023-07-13T08:19:41;7.90;;;3.70;;
72427;SDS011;60419;48.880;18.036;2023-07-13T08:22:26;6.43;;;3.95;;
72427;SDS011;60419;48.880;18.036;2023-07-13T08:25:12;5.90;;;3.78;;
72427;SDS011;60419;48.880;18.036;2023-07-13T08:27:57;7.90;;;4.35;;
72427;SDS011;60419;48.880;18.036;2023-07-13T08:30:43;9.65;;;4.75;;
72427;SDS011;60419;48.880;18.036;2023-07-13T08:33:28;6.75;;;5.28;;
72427;SDS011;60419;48.880;18.036;2023-07-13T08:36:14;10.27;;;5.25;;
72427;SDS011;60419;48.880;18.036;2023-07-13T08:38:59;7.82;;;5.65;;
72427;SDS011;60419;48.880;18.036;2023-07-13T08:41:46;6.00;;;4.50;;
72427;SDS011;60419;48.880;18.036;2023-07-13T08:44:40;7.15;;;4.28;;
72427;SDS011;60419;48.880;18.036;2023-07-13T08:48:14;7.80;;;4.47;;
72427;SDS011;60419;48.880;18.036;2023-07-13T08:54:24;5.35;;;3.97;;
72427;SDS011;60419;48.880;18.036;2023-07-13T08:57:13;6.35;;;3.90;;
72427;SDS011;60419;48.880;18.036;2023-07-13T09:00:00;5.72;;;3.83;;
72427;SDS011;60419;48.880;18.036;2023-07-13T09:02:46;7.38;;;4.07;;
72427;SDS011;60419;48.880;18.036;2023-07-13T09:05:43;5.93;;;4.22;;
72427;SDS011;60419;48.880;18.036;2023-07-13T09:08:38;6.28;;;3.55;;
72427;SDS011;60419;48.880;18.036;2023-07-13T09:11:49;4.70;;;3.08;;
72427;SDS011;60419;48.880;18.036;2023-07-13T09:14:44;4.72;;;3.10;;
72427;SDS011;60419;48.880;18.036;2023-07-13T09:17:33;5.47;;;3.75;;
72427;SDS011;60419;48.880;18.036;2023-07-13T09:23:19;6.10;;;4.03;;
72427;SDS011;60419;48.880;18.036;2023-07-13T09:29:09;7.05;;;4.30;;
72427;SDS011;60419;48.880;18.036;2023-07-13T09:32:01;6.55;;;3.83;;
72427;SDS011;60419;48.880;18.036;2023-07-13T09:34:52;6.38;;;3.92;;
72427;SDS011;60419;48.880;18.036;2023-07-13T09:37:39;7.65;;;4.20;;
72427;SDS011;60419;48.880;18.036;2023-07-13T09:40:35;7.10;;;3.90;;
72427;SDS011;60419;48.880;18.036;2023-07-13T09:43:28;6.60;;;4.40;;
72427;SDS011;60419;48.880;18.036;2023-07-13T09:46:20;7.13;;;4.57;;
72427;SDS011;60419;48.880;18.036;2023-07-13T09:51:58;5.68;;;4.10;;
72427;SDS011;60419;48.880;18.036;2023-07-13T09:54:51;6.28;;;4.15;;
72427;SDS011;60419;48.880;18.036;2023-07-13T09:57:46;5.75;;;4.15;;
72427;SDS011;60419;48.880;18.036;2023-07-13T10:00:33;6.90;;;4.37;;
72427;SDS011;60419;48.880;18.036;2023-07-13T10:03:19;6.82;;;4.20;;
72427;SDS011;60419;48.880;18.036;2023-07-13T10:06:14;6.60;;;4.40;;
72427;SDS011;60419;48.880;18.036;2023-07-13T10:09:00;6.65;;;4.20;;
72427;SDS011;60419;48.880;18.036;2023-07-13T10:11:45;5.40;;;4.00;;
72427;SDS011;60419;48.880;18.036;2023-07-13T10:14:31;7.47;;;3.92;;
72427;SDS011;60419;48.880;18.036;2023-07-13T10:17:16;7.55;;;3.92;;
72427;SDS011;60419;48.880;18.036;2023-07-13T10:20:05;7.57;;;4.25;;
72427;SDS011;60419;48.880;18.036;2023-07-13T10:23:05;6.00;;;4.32;;
72427;SDS011;60419;48.880;18.036;2023-07-13T10:25:59;7.95;;;4.50;;
72427;SDS011;60419;48.880;18.036;2023-07-13T10:28:45;6.95;;;4.07;;
72427;SDS011;60419;48.880;18.036;2023-07-13T10:31:40;6.18;;;4.13;;
72427;SDS011;60419;48.880;18.036;2023-07-13T10:34:26;7.93;;;4.35;;
72427;SDS011;60419;48.880;18.036;2023-07-13T10:37:16;6.82;;;4.07;;
72427;SDS011;60419;48.880;18.036;2023-07-13T10:40:06;6.32;;;4.20;;
72427;SDS011;60419;48.880;18.036;2023-07-13T10:42:59;6.43;;;4.32;;
72427;SDS011;60419;48.880;18.036;2023-07-13T10:45:49;7.25;;;4.30;;
72427;SDS011;60419;48.880;18.036;2023-07-13T10:48:36;7.00;;;4.25;;
72427;SDS011;60419;48.880;18.036;2023-07-13T10:51:24;5.88;;;3.95;;
72427;SDS011;60419;48.880;18.036;2023-07-13T10:57:21;8.75;;;4.60;;
72427;SDS011;60419;48.880;18.036;2023-07-13T11:00:16;7.80;;;4.20;;
72427;SDS011;60419;48.880;18.036;2023-07-13T11:03:03;6.35;;;4.65;;
72427;SDS011;60419;48.880;18.036;2023-07-13T11:05:50;6.30;;;4.30;;
72427;SDS011;60419;48.880;18.036;2023-07-13T11:08:38;6.13;;;4.97;;
72427;SDS011;60419;48.880;18.036;2023-07-13T11:11:37;7.20;;;4.75;;
72427;SDS011;60419;48.880;18.036;2023-07-13T11:14:31;6.93;;;4.90;;
72427;SDS011;60419;48.880;18.036;2023-07-13T11:17:33;6.15;;;4.60;;
72427;SDS011;60419;48.880;18.036;2023-07-13T11:20:45;8.13;;;4.88;;
72427;SDS011;60419;48.880;18.036;2023-07-13T11:23:33;6.53;;;4.93;;
72427;SDS011;60419;48.880;18.036;2023-07-13T11:26:44;7.47;;;4.78;;
72427;SDS011;60419;48.880;18.036;2023-07-13T11:29:37;6.65;;;5.00;;
72427;SDS011;60419;48.880;18.036;2023-07-13T11:32:25;6.90;;;4.93;;
72427;SDS011;60419;48.880;18.036;2023-07-13T11:35:18;6.18;;;4.75;;
72427;SDS011;60419;48.880;18.036;2023-07-13T11:38:16;7.05;;;4.97;;
72427;SDS011;60419;48.880;18.036;2023-07-13T11:41:15;6.78;;;4.60;;
72427;SDS011;60419;48.880;18.036;2023-07-13T11:47:08;7.15;;;5.47;;
72427;SDS011;60419;48.880;18.036;2023-07-13T11:49:56;6.95;;;4.82;;
72427;SDS011;60419;48.880;18.036;2023-07-13T11:52:43;7.40;;;5.22;;
72427;SDS011;60419;48.880;18.036;2023-07-13T11:55:29;6.38;;;4.85;;
72427;SDS011;60419;48.880;18.036;2023-07-13T11:58:14;9.93;;;4.97;;
72427;SDS011;60419;48.880;18.036;2023-07-13T12:01:04;7.13;;;4.93;;
72427;SDS011;60419;48.880;18.036;2023-07-13T12:03:50;7.15;;;4.80;;
72427;SDS011;60419;48.880;18.036;2023-07-13T12:06:36;6.85;;;5.05;;
72427;SDS011;60419;48.880;18.036;2023-07-13T12:09:25;7.53;;;5.35;;
72427;SDS011;60419;48.880;18.036;2023-07-13T12:12:13;7.88;;;5.18;;
72427;SDS011;60419;48.880;18.036;2023-07-13T12:15:00;6.82;;;4.97;;
72427;SDS011;60419;48.880;18.036;2023-07-13T12:17:45;6.63;;;4.88;;
72427;SDS011;60419;48.880;18.036;2023-07-13T12:20:33;6.78;;;4.85;;
72427;SDS011;60419;48.880;18.036;2023-07-13T12:23:29;5.72;;;4.70;;
72427;SDS011;60419;48.880;18.036;2023-07-13T12:26:19;7.20;;;4.88;;
72427;SDS011;60419;48.880;18.036;2023-07-13T12:29:06;8.13;;;4.82;;
72427;SDS011;60419;48.880;18.036;2023-07-13T12:31:51;7.00;;;4.78;;
72427;SDS011;60419;48.880;18.036;2023-07-13T12:34:50;6.93;;;5.00;;
72427;SDS011;60419;48.880;18.036;2023-07-13T12:37:43;7.45;;;5.00;;
72427;SDS011;60419;48.880;18.036;2023-07-13T12:40:32;6.50;;;5.25;;
72427;SDS011;60419;48.880;18.036;2023-07-13T12:43:22;5.80;;;3.45;;
72427;SDS011;60419;48.880;18.036;2023-07-13T12:46:22;4.88;;;3.38;;
72427;SDS011;60419;48.880;18.036;2023-07-13T12:49:12;6.32;;;3.45;;
72427;SDS011;60419;48.880;18.036;2023-07-13T12:52:00;5.63;;;3.20;;
72427;SDS011;60419;48.880;18.036;2023-07-13T12:54:57;5.00;;;3.35;;
72427;SDS011;60419;48.880;18.036;2023-07-13T12:57:54;5.25;;;3.92;;
72427;SDS011;60419;48.880;18.036;2023-07-13T13:00:47;5.57;;;3.78;;
72427;SDS011;60419;48.880;18.036;2023-07-13T13:03:40;5.38;;;3.78;;
72427;SDS011;60419;48.880;18.036;2023-07-13T13:06:31;5.30;;;3.47;;
72427;SDS011;60419;48.880;18.036;2023-07-13T13:09:17;5.57;;;3.70;;
72427;SDS011;60419;48.880;18.036;2023-07-13T13:12:05;6.15;;;3.83;;
72427;SDS011;60419;48.880;18.036;2023-07-13T13:14:51;6.40;;;4.20;;
72427;SDS011;60419;48.880;18.036;2023-07-13T13:17:38;6.95;;;3.83;;
72427;SDS011;60419;48.880;18.036;2023-07-13T13:20:24;4.78;;;3.25;;
72427;SDS011;60419;48.880;18.036;2023-07-13T13:23:12;6.28;;;3.53;;
72427;SDS011;60419;48.880;18.036;2023-07-13T13:26:02;5.72;;;3.67;;
72427;SDS011;60419;48.880;18.036;2023-07-13T13:28:48;7.38;;;4.43;;
72427;SDS011;60419;48.880;18.036;2023-07-13T13:31:34;6.40;;;3.80;;
72427;SDS011;60419;48.880;18.036;2023-07-13T13:34:20;6.50;;;4.50;;
72427;SDS011;60419;48.880;18.036;2023-07-13T13:37:15;9.38;;;4.38;;
72427;SDS011;60419;48.880;18.036;2023-07-13T13:40:18;6.50;;;4.05;;
72427;SDS011;60419;48.880;18.036;2023-07-13T13:43:23;6.80;;;4.03;;
72427;SDS011;60419;48.880;18.036;2023-07-13T13:46:15;7.22;;;4.05;;
72427;SDS011;60419;48.880;18.036;2023-07-13T13:49:03;6.70;;;3.78;;
72427;SDS011;60419;48.880;18.036;2023-07-13T13:51:48;5.38;;;3.80;;
72427;SDS011;60419;48.880;18.036;2023-07-13T13:54:33;6.60;;;4.07;;
72427;SDS011;60419;48.880;18.036;2023-07-13T13:57:19;8.40;;;4.32;;
72427;SDS011;60419;48.880;18.036;2023-07-13T14:00:04;6.93;;;4.18;;
72427;SDS011;60419;48.880;18.036;2023-07-13T14:02:50;6.40;;;3.67;;
72427;SDS011;60419;48.880;18.036;2023-07-13T14:05:37;6.90;;;4.00;;
72427;SDS011;60419;48.880;18.036;2023-07-13T14:08:25;5.72;;;3.58;;
72427;SDS011;60419;48.880;18.036;2023-07-13T14:11:11;7.72;;;4.05;;
72427;SDS011;60419;48.880;18.036;2023-07-13T14:13:59;5.38;;;3.78;;
72427;SDS011;60419;48.880;18.036;2023-07-13T14:16:45;6.20;;;3.90;;
72427;SDS011;60419;48.880;18.036;2023-07-13T14:19:38;6.90;;;3.83;;
72427;SDS011;60419;48.880;18.036;2023-07-13T14:22:24;6.05;;;3.60;;
72427;SDS011;60419;48.880;18.036;2023-07-13T14:25:11;6.18;;;3.85;;
72427;SDS011;60419;48.880;18.036;2023-07-13T14:27:58;7.75;;;4.07;;
72427;SDS011;60419;48.880;18.036;2023-07-13T14:30:45;6.10;;;3.78;;
72427;SDS011;60419;48.880;18.036;2023-07-13T14:33:32;6.03;;;3.90;;
72427;SDS011;60419;48.880;18.036;2023-07-13T14:36:23;5.32;;;3.58;;
72427;SDS011;60419;48.880;18.036;2023-07-13T14:39:16;6.13;;;3.70;;
72427;SDS011;60419;48.880;18.036;2023-07-13T14:42:03;6.65;;;3.30;;
72427;SDS011;60419;48.880;18.036;2023-07-13T14:44:48;5.72;;;3.42;;
72427;SDS011;60419;48.880;18.036;2023-07-13T14:47:34;6.60;;;3.30;;
72427;SDS011;60419;48.880;18.036;2023-07-13T14:50:21;4.80;;;3.38;;
72427;SDS011;60419;48.880;18.036;2023-07-13T14:53:10;6.53;;;3.83;;
72427;SDS011;60419;48.880;18.036;2023-07-13T14:55:56;5.72;;;3.70;;
72427;SDS011;60419;48.880;18.036;2023-07-13T14:58:42;4.93;;;3.30;;
72427;SDS011;60419;48.880;18.036;2023-07-13T15:01:27;4.93;;;3.30;;
72427;SDS011;60419;48.880;18.036;2023-07-13T15:04:15;6.00;;;3.75;;
72427;SDS011;60419;48.880;18.036;2023-07-13T15:07:02;6.60;;;3.90;;
72427;SDS011;60419;48.880;18.036;2023-07-13T15:09:48;5.65;;;3.47;;
72427;SDS011;60419;48.880;18.036;2023-07-13T15:12:33;6.05;;;3.47;;
72427;SDS011;60419;48.880;18.036;2023-07-13T15:15:18;6.38;;;3.22;;
72427;SDS011;60419;48.880;18.036;2023-07-13T15:18:04;5.13;;;3.33;;
72427;SDS011;60419;48.880;18.036;2023-07-13T15:20:50;5.43;;;3.28;;
72427;SDS011;60419;48.880;18.036;2023-07-13T15:26:26;6.43;;;3.53;;
72427;SDS011;60419;48.880;18.036;2023-07-13T15:29:12;5.05;;;3.30;;
72427;SDS011;60419;48.880;18.036;2023-07-13T15:31:58;4.68;;;3.20;;
72427;SDS011;60419;48.880;18.036;2023-07-13T15:34:43;5.97;;;3.50;;
72427;SDS011;60419;48.880;18.036;2023-07-13T15:37:29;4.45;;;3.22;;
72427;SDS011;60419;48.880;18.036;2023-07-13T15:40:14;6.95;;;3.45;;
72427;SDS011;60419;48.880;18.036;2023-07-13T15:43:00;5.30;;;3.20;;
72427;SDS011;60419;48.880;18.036;2023-07-13T15:45:46;5.47;;;3.45;;
72427;SDS011;60419;48.880;18.036;2023-07-13T15:48:32;5.85;;;3.35;;
72427;SDS011;60419;48.880;18.036;2023-07-13T15:51:23;5.55;;;3.47;;
72427;SDS011;60419;48.880;18.036;2023-07-13T15:54:12;5.78;;;3.53;;
72427;SDS011;60419;48.880;18.036;2023-07-13T15:57:00;4.75;;;3.63;;
72427;SDS011;60419;48.880;18.036;2023-07-13T15:59:46;5.30;;;3.58;;
72427;SDS011;60419;48.880;18.036;2023-07-13T16:02:32;6.65;;;3.78;;
72427;SDS011;60419;48.880;18.036;2023-07-13T16:05:18;5.93;;;3.55;;
72427;SDS011;60419;48.880;18.036;2023-07-13T16:08:05;6.18;;;3.30;;
72427;SDS011;60419;48.880;18.036;2023-07-13T16:11:01;6.35;;;3.70;;
72427;SDS011;60419;48.880;18.036;2023-07-13T16:13:47;6.18;;;3.60;;
72427;SDS011;60419;48.880;18.036;2023-07-13T16:16:38;5.15;;;3.38;;
72427;SDS011;60419;48.880;18.036;2023-07-13T16:19:24;4.53;;;3.33;;
72427;SDS011;60419;48.880;18.036;2023-07-13T16:22:14;5.95;;;3.45;;
72427;SDS011;60419;48.880;18.036;2023-07-13T16:25:02;5.63;;;3.38;;
72427;SDS011;60419;48.880;18.036;2023-07-13T16:27:52;5.28;;;3.40;;
72427;SDS011;60419;48.880;18.036;2023-07-13T16:30:43;6.35;;;3.13;;
72427;SDS011;60419;48.880;18.036;2023-07-13T16:33:28;5.93;;;3.33;;
72427;SDS011;60419;48.880;18.036;2023-07-13T16:36:14;6.78;;;3.13;;
72427;SDS011;60419;48.880;18.036;2023-07-13T16:38:59;6.30;;;3.70;;
72427;SDS011;60419;48.880;18.036;2023-07-13T16:41:45;5.78;;;3.50;;
72427;SDS011;60419;48.880;18.036;2023-07-13T16:44:30;5.80;;;3.60;;
72427;SDS011;60419;48.880;18.036;2023-07-13T16:47:17;6.18;;;3.85;;
72427;SDS011;60419;48.880;18.036;2023-07-13T16:50:04;6.53;;;3.58;;
72427;SDS011;60419;48.880;18.036;2023-07-13T16:52:59;8.20;;;3.90;;
72427;SDS011;60419;48.880;18.036;2023-07-13T16:55:45;6.10;;;3.80;;